Time;durP1;ratioP1;P1;durP2;ratioP2;P2;SDS_P1;SDS_P2;PMS_P1;PMS_P2;Temp;Humidity;BMP_temperature;BMP_pressure;BME280_temperature;BME280_humidity;BME280_pressure;Samples;Min_cycle;Max_cycle;Signal;HPM_P1;HPM_P2
2023/01/11 02:25:12;;;;;;;1999.90;999.90;;;;;;;;;;5457764;22;20696;-69
2023/01/11 02:28:04;;;;;;;1999.90;999.90;;;;;;;;;;5013718;28;20211;-66
2023/01/11 02:30:53;;;;;;;1999.90;999.90;;;;;;;;;;5006577;28;20294;-69
2023/01/11 02:33:42;;;;;;;1999.90;999.90;;;;;;;;;;4998488;28;20574;-68
2023/01/11 02:36:30;;;;;;;1999.90;999.90;;;;;;;;;;5003270;28;20875;-68
2023/01/11 02:39:17;;;;;;;1999.90;999.90;;;;;;;;;;5012190;28;20203;-69
2023/01/11 02:45:15;;;;;;;1999.90;999.90;;;;;;;;;;4996202;28;20211;-68
2023/01/11 02:48:02;;;;;;;1999.90;999.90;;;;;;;;;;4997684;28;20207;-68
2023/01/11 02:50:51;;;;;;;1999.90;999.90;;;;;;;;;;5011872;28;20261;-68
2023/01/11 02:53:37;;;;;;;1999.90;999.90;;;;;;;;;;5007012;28;20207;-67
2023/01/11 02:56:25;;;;;;;1999.90;999.90;;;;;;;;;;4997204;28;20231;-68
2023/01/11 02:59:11;;;;;;;1999.90;999.90;;;;;;;;;;5003667;28;20210;-66
2023/01/11 03:01:58;;;;;;;1999.90;999.90;;;;;;;;;;5013527;28;20685;-69
2023/01/11 03:04:43;;;;;;;1999.90;999.90;;;;;;;;;;5011762;28;20604;-69
2023/01/11 03:07:36;;;;;;;1999.90;999.90;;;;;;;;;;5012111;28;20290;-68
2023/01/11 03:10:31;;;;;;;1999.90;999.90;;;;;;;;;;5009542;28;20230;-68
2023/01/11 03:13:22;;;;;;;1999.90;999.90;;;;;;;;;;4992713;28;20786;-66
2023/01/11 03:16:11;;;;;;;1999.90;999.90;;;;;;;;;;5008313;28;20351;-67
2023/01/11 03:19:06;;;;;;;1999.90;999.90;;;;;;;;;;5011450;28;20206;-69
2023/01/11 03:21:55;;;;;;;1999.90;999.90;;;;;;;;;;5011483;28;20270;-69
2023/01/11 03:24:45;;;;;;;1999.90;999.90;;;;;;;;;;4992233;28;20243;-69
2023/01/11 03:27:33;;;;;;;1999.90;999.90;;;;;;;;;;5008130;28;20210;-69
2023/01/11 03:30:21;;;;;;;1999.90;999.90;;;;;;;;;;5012144;28;20218;-69
2023/01/11 03:33:09;;;;;;;1999.90;999.90;;;;;;;;;;5013437;28;20202;-68
2023/01/11 03:35:57;;;;;;;1999.90;999.90;;;;;;;;;;5012219;28;20293;-68
2023/01/11 03:38:46;;;;;;;1999.90;999.90;;;;;;;;;;5013042;28;20334;-69
2023/01/11 03:41:33;;;;;;;1999.90;999.90;;;;;;;;;;5013333;28;20210;-68
2023/01/11 03:44:20;;;;;;;1999.90;999.90;;;;;;;;;;5012757;28;20226;-68
2023/01/11 03:47:06;;;;;;;1999.90;999.90;;;;;;;;;;5009532;28;20199;-68
2023/01/11 03:49:52;;;;;;;1999.90;999.90;;;;;;;;;;4993480;28;20572;-68
2023/01/11 03:52:41;;;;;;;1999.90;999.90;;;;;;;;;;4993376;28;20211;-68
2023/01/11 03:55:28;;;;;;;1999.90;999.90;;;;;;;;;;4992741;28;20598;-68
2023/01/11 03:58:13;;;;;;;1999.90;999.90;;;;;;;;;;4993323;28;20206;-69
2023/01/11 04:00:59;;;;;;;1999.90;999.90;;;;;;;;;;4993226;28;20209;-68
2023/01/11 04:03:44;;;;;;;1999.90;999.90;;;;;;;;;;4993102;28;20215;-69
2023/01/11 04:06:29;;;;;;;1999.90;999.90;;;;;;;;;;4993055;28;20572;-68
2023/01/11 04:09:15;;;;;;;1999.90;999.90;;;;;;;;;;4992865;28;20258;-69
2023/01/11 04:12:00;;;;;;;1999.90;999.90;;;;;;;;;;4993029;28;20211;-68
2023/01/11 04:14:45;;;;;;;1999.90;999.90;;;;;;;;;;4992684;28;20223;-68
2023/01/11 04:17:30;;;;;;;1999.90;999.90;;;;;;;;;;4995286;28;20286;-68
2023/01/11 04:20:15;;;;;;;1999.90;999.90;;;;;;;;;;5012516;28;20692;-69
2023/01/11 04:23:00;;;;;;;1999.90;999.90;;;;;;;;;;5012176;28;20342;-68
2023/01/11 04:25:46;;;;;;;1999.90;999.90;;;;;;;;;;5011828;28;20707;-69
2023/01/11 04:28:31;;;;;;;1999.90;999.90;;;;;;;;;;5012171;28;20719;-68
2023/01/11 04:31:16;;;;;;;1999.90;999.90;;;;;;;;;;5010640;28;20547;-68
2023/01/11 04:34:01;;;;;;;1999.90;999.90;;;;;;;;;;5012042;28;20242;-68
2023/01/11 04:36:46;;;;;;;1999.90;999.90;;;;;;;;;;5011759;28;20261;-69
2023/01/11 04:39:31;;;;;;;1999.90;999.90;;;;;;;;;;4992775;28;20212;-68
2023/01/11 04:42:20;;;;;;;1999.90;999.90;;;;;;;;;;4997354;28;20206;-69
2023/01/11 04:45:06;;;;;;;1999.90;999.90;;;;;;;;;;5012029;28;20228;-68
2023/01/11 04:47:54;;;;;;;1999.90;999.90;;;;;;;;;;5013178;28;20222;-69
2023/01/11 04:50:39;;;;;;;1999.90;999.90;;;;;;;;;;5016342;28;20210;-68
2023/01/11 04:53:24;;;;;;;1999.90;999.90;;;;;;;;;;5015867;28;20681;-68
2023/01/11 04:56:10;;;;;;;1999.90;999.90;;;;;;;;;;5014380;28;20456;-69
2023/01/11 04:58:57;;;;;;;1999.90;999.90;;;;;;;;;;4996544;28;20257;-69
2023/01/11 05:01:42;;;;;;;1999.90;999.90;;;;;;;;;;5000208;28;20206;-67
2023/01/11 05:04:27;;;;;;;1999.90;999.90;;;;;;;;;;5005930;28;20234;-69
2023/01/11 05:07:12;;;;;;;1999.90;999.90;;;;;;;;;;5016046;28;20203;-69
2023/01/11 05:09:57;;;;;;;1999.90;999.90;;;;;;;;;;4996453;28;20212;-69
2023/01/11 05:12:42;;;;;;;1999.90;999.90;;;;;;;;;;4997593;28;20214;-69
2023/01/11 05:15:28;;;;;;;1999.90;999.90;;;;;;;;;;4996789;28;20366;-66
2023/01/11 05:18:13;;;;;;;1999.90;999.90;;;;;;;;;;4995996;28;20211;-68
2023/01/11 05:20:58;;;;;;;1999.90;999.90;;;;;;;;;;5008337;28;20301;-69
2023/01/11 05:23:43;;;;;;;1999.90;999.90;;;;;;;;;;5015739;28;20350;-68
2023/01/11 05:26:30;;;;;;;1999.90;999.90;;;;;;;;;;5015602;28;20700;-69
2023/01/11 05:29:16;;;;;;;1999.90;999.90;;;;;;;;;;5015654;28;20242;-69
2023/01/11 05:32:02;;;;;;;1999.90;999.90;;;;;;;;;;5015666;28;20692;-68
2023/01/11 05:34:47;;;;;;;1999.90;999.90;;;;;;;;;;5015330;28;20698;-68
2023/01/11 05:37:32;;;;;;;1999.90;999.90;;;;;;;;;;5015081;28;20247;-67
2023/01/11 05:40:17;;;;;;;1999.90;999.90;;;;;;;;;;5014870;28;20211;-69
2023/01/11 05:43:03;;;;;;;1999.90;999.90;;;;;;;;;;5014230;28;20216;-68
2023/01/11 05:45:47;;;;;;;1999.90;999.90;;;;;;;;;;5015131;28;20294;-68
2023/01/11 05:48:33;;;;;;;1999.90;999.90;;;;;;;;;;5015434;28;20742;-68
2023/01/11 05:51:18;;;;;;;1999.90;999.90;;;;;;;;;;5014699;28;20202;-69
2023/01/11 05:54:04;;;;;;;1999.90;999.90;;;;;;;;;;4995508;28;20347;-67
2023/01/11 05:56:49;;;;;;;1999.90;999.90;;;;;;;;;;5004095;28;20231;-69
2023/01/11 05:59:34;;;;;;;1999.90;999.90;;;;;;;;;;5014285;28;20585;-69
2023/01/11 06:02:18;;;;;;;1999.90;999.90;;;;;;;;;;5014672;28;20206;-69
2023/01/11 06:05:05;;;;;;;1999.90;999.90;;;;;;;;;;5014430;28;20312;-69
2023/01/11 06:07:50;;;;;;;1999.90;999.90;;;;;;;;;;5014630;28;20204;-69
2023/01/11 06:10:35;;;;;;;1999.90;999.90;;;;;;;;;;5014237;28;20494;-67
2023/01/11 06:13:26;;;;;;;1999.90;999.90;;;;;;;;;;5002170;28;20595;-68
2023/01/11 06:16:12;;;;;;;1999.90;999.90;;;;;;;;;;5013551;28;20215;-69
2023/01/11 06:18:57;;;;;;;1999.90;999.90;;;;;;;;;;5005765;28;20233;-69
2023/01/11 06:21:43;;;;;;;1999.90;999.90;;;;;;;;;;5012741;28;20206;-69
2023/01/11 06:24:28;;;;;;;1999.90;999.90;;;;;;;;;;5000464;28;20242;-68
2023/01/11 06:27:13;;;;;;;1999.90;999.90;;;;;;;;;;5013613;28;20262;-69
2023/01/11 06:29:58;;;;;;;1999.90;999.90;;;;;;;;;;5013990;28;20199;-69
2023/01/11 06:32:43;;;;;;;1999.90;999.90;;;;;;;;;;5014396;28;20214;-68
2023/01/11 06:35:27;;;;;;;1999.90;999.90;;;;;;;;;;5011210;28;20415;-68
2023/01/11 06:38:15;;;;;;;1999.90;999.90;;;;;;;;;;4999335;28;20199;-68
2023/01/11 06:41:01;;;;;;;1999.90;999.90;;;;;;;;;;4998266;28;20693;-67
2023/01/11 06:43:47;;;;;;;1999.90;999.90;;;;;;;;;;4993724;28;20318;-69
2023/01/11 06:46:32;;;;;;;1999.90;999.90;;;;;;;;;;5010623;28;20330;-66
2023/01/11 06:49:16;;;;;;;1999.90;999.90;;;;;;;;;;5013678;28;20257;-66
2023/01/11 06:52:02;;;;;;;1999.90;999.90;;;;;;;;;;5014154;28;20211;-65
2023/01/11 06:54:48;;;;;;;1999.90;999.90;;;;;;;;;;5013887;28;20233;-69
2023/01/11 06:57:33;;;;;;;1999.90;999.90;;;;;;;;;;5013698;28;20230;-65
2023/01/11 07:00:19;;;;;;;1999.90;999.90;;;;;;;;;;5013921;28;20275;-65
2023/01/11 07:03:04;;;;;;;1999.90;999.90;;;;;;;;;;5013356;28;20195;-68
2023/01/11 07:05:50;;;;;;;1999.90;999.90;;;;;;;;;;5013236;28;20222;-65
2023/01/11 07:08:35;;;;;;;1999.90;999.90;;;;;;;;;;4994338;28;20696;-66
2023/01/11 07:11:21;;;;;;;1999.90;999.90;;;;;;;;;;5003852;28;20889;-68
2023/01/11 07:14:06;;;;;;;1999.90;999.90;;;;;;;;;;5010623;28;20593;-67
2023/01/11 07:16:51;;;;;;;1999.90;999.90;;;;;;;;;;5002995;28;20222;-68
2023/01/11 07:19:37;;;;;;;1999.90;999.90;;;;;;;;;;5012287;28;20241;-68
2023/01/11 07:22:22;;;;;;;1999.90;999.90;;;;;;;;;;5005718;28;20226;-68
2023/01/11 07:25:07;;;;;;;1999.90;999.90;;;;;;;;;;4993471;28;20723;-69
2023/01/11 07:27:57;;;;;;;1999.90;999.90;;;;;;;;;;5007847;28;20603;-69
2023/01/11 07:30:42;;;;;;;1999.90;999.90;;;;;;;;;;5013564;28;20202;-68
2023/01/11 07:33:27;;;;;;;1999.90;999.90;;;;;;;;;;5026918;28;20217;-69
2023/01/11 07:36:12;;;;;;;1999.90;999.90;;;;;;;;;;5032623;28;20218;-68
2023/01/11 07:38:57;;;;;;;1999.90;999.90;;;;;;;;;;5030213;28;20205;-69
2023/01/11 07:44:46;;;;;;;1999.90;999.90;;;;;;;;;;5012518;28;20218;-69
2023/01/11 07:47:31;;;;;;;1999.90;999.90;;;;;;;;;;5015010;28;20229;-68
2023/01/11 07:50:16;;;;;;;1999.90;999.90;;;;;;;;;;5015881;28;20540;-68
2023/01/11 07:53:01;;;;;;;1999.90;999.90;;;;;;;;;;5014372;28;20700;-69
2023/01/11 07:55:46;;;;;;;1999.90;999.90;;;;;;;;;;5018131;28;20231;-70
2023/01/11 07:58:31;;;;;;;1999.90;999.90;;;;;;;;;;5029401;28;20206;-69
2023/01/11 08:01:17;;;;;;;1999.90;999.90;;;;;;;;;;5013339;28;20210;-69
2023/01/11 08:04:02;;;;;;;1999.90;999.90;;;;;;;;;;5007740;28;20219;-68
2023/01/11 08:06:47;;;;;;;1999.90;999.90;;;;;;;;;;5011883;28;20334;-69
2023/01/11 08:09:32;;;;;;;1999.90;999.90;;;;;;;;;;5011942;28;20214;-68
2023/01/11 08:15:20;;;;;;;1999.90;999.90;;;;;;;;;;5010991;28;20294;-68
2023/01/11 08:18:06;;;;;;;1999.90;999.90;;;;;;;;;;5009892;28;20453;-68
2023/01/11 08:20:52;;;;;;;1999.90;999.90;;;;;;;;;;5022610;28;20247;-69
2023/01/11 08:23:37;;;;;;;1999.90;999.90;;;;;;;;;;5010583;28;20716;-70
2023/01/11 08:26:22;;;;;;;1999.90;999.90;;;;;;;;;;5022646;28;20297;-70
2023/01/11 08:29:07;;;;;;;1999.90;999.90;;;;;;;;;;5009296;28;20271;-68
2023/01/11 08:31:52;;;;;;;1999.90;999.90;;;;;;;;;;5013204;28;20594;-69
2023/01/11 08:34:39;;;;;;;1999.90;999.90;;;;;;;;;;5017134;28;20222;-68
2023/01/11 08:37:24;;;;;;;1999.90;999.90;;;;;;;;;;5022198;28;20226;-68
2023/01/11 08:40:09;;;;;;;1999.90;999.90;;;;;;;;;;5021775;28;20565;-69
2023/01/11 08:42:54;;;;;;;1999.90;999.90;;;;;;;;;;5012606;28;20218;-69
2023/01/11 08:45:40;;;;;;;1999.90;999.90;;;;;;;;;;5015797;28;20270;-69
2023/01/11 08:48:26;;;;;;;1999.90;999.90;;;;;;;;;;5014101;28;20205;-70
2023/01/11 08:51:12;;;;;;;1999.90;999.90;;;;;;;;;;5011997;28;20288;-69
2023/01/11 08:53:57;;;;;;;1999.90;999.90;;;;;;;;;;5014382;28;20245;-70
2023/01/11 08:56:42;;;;;;;1999.90;999.90;;;;;;;;;;5028256;28;20221;-69
2023/01/11 08:59:27;;;;;;;1999.90;999.90;;;;;;;;;;5010238;28;20213;-69
2023/01/11 09:02:12;;;;;;;1999.90;999.90;;;;;;;;;;5018343;28;20202;-69
2023/01/11 09:04:57;;;;;;;1999.90;999.90;;;;;;;;;;5021675;28;20319;-70
2023/01/11 09:07:43;;;;;;;1999.90;999.90;;;;;;;;;;5015826;28;20215;-70
2023/01/11 09:10:28;;;;;;;1999.90;999.90;;;;;;;;;;5011872;28;20210;-69
2023/01/11 09:13:13;;;;;;;1999.90;999.90;;;;;;;;;;5017944;28;20210;-68
2023/01/11 09:15:58;;;;;;;1999.90;999.90;;;;;;;;;;5019121;28;20205;-70
2023/01/11 09:18:43;;;;;;;1999.90;999.90;;;;;;;;;;5011789;28;20302;-67
2023/01/11 09:21:29;;;;;;;1999.90;999.90;;;;;;;;;;5019229;28;20321;-68
2023/01/11 09:24:16;;;;;;;1999.90;999.90;;;;;;;;;;5011015;28;20247;-68
2023/01/11 09:27:03;;;;;;;1999.90;999.90;;;;;;;;;;5008081;28;20419;-69
2023/01/11 09:29:48;;;;;;;1999.90;999.90;;;;;;;;;;5007966;28;20686;-69
2023/01/11 09:32:33;;;;;;;1999.90;999.90;;;;;;;;;;5008449;28;20712;-70
2023/01/11 09:35:18;;;;;;;1999.90;999.90;;;;;;;;;;5010277;28;20231;-69
2023/01/11 09:38:03;;;;;;;1999.90;999.90;;;;;;;;;;5023559;28;20762;-68
2023/01/11 09:40:55;;;;;;;1999.90;999.90;;;;;;;;;;5020688;28;20699;-69
2023/01/11 09:43:45;;;;;;;1999.90;999.90;;;;;;;;;;5018680;28;20202;-69
2023/01/11 09:46:31;;;;;;;1999.90;999.90;;;;;;;;;;5014338;28;20782;-70
2023/01/11 09:49:19;;;;;;;1999.90;999.90;;;;;;;;;;5021829;28;20202;-69
2023/01/11 09:52:15;;;;;;;1999.90;999.90;;;;;;;;;;5021558;28;20213;-69
2023/01/11 09:55:01;;;;;;;1999.90;999.90;;;;;;;;;;5031014;28;20561;-70
2023/01/11 09:57:54;;;;;;;1999.90;999.90;;;;;;;;;;5021860;28;20265;-70
2023/01/11 10:00:47;;;;;;;1999.90;999.90;;;;;;;;;;5009977;28;20218;-68
2023/01/11 10:03:58;;;;;;;1999.90;999.90;;;;;;;;;;5016950;28;20214;-69
2023/01/11 10:06:54;;;;;;;1999.90;999.90;;;;;;;;;;5015177;28;20210;-70
2023/01/11 10:09:42;;;;;;;1999.90;999.90;;;;;;;;;;5011615;28;20206;-69
2023/01/11 10:12:33;;;;;;;1999.90;999.90;;;;;;;;;;5012174;28;20570;-70
2023/01/11 10:15:26;;;;;;;1999.90;999.90;;;;;;;;;;5010817;28;20241;-69
2023/01/11 10:18:24;;;;;;;1999.90;999.90;;;;;;;;;;5013433;28;20207;-69
2023/01/11 10:21:12;;;;;;;1999.90;999.90;;;;;;;;;;5014089;28;20713;-68
2023/01/11 10:24:00;;;;;;;1999.90;999.90;;;;;;;;;;5020675;28;20263;-69
2023/01/11 10:26:45;;;;;;;1999.90;999.90;;;;;;;;;;5022517;28;20206;-69
2023/01/11 10:29:48;;;;;;;1999.90;999.90;;;;;;;;;;5013835;28;20599;-71
2023/01/11 10:32:52;;;;;;;1999.90;999.90;;;;;;;;;;5004218;28;20199;-69
2023/01/11 10:36:01;;;;;;;1999.90;999.90;;;;;;;;;;4996735;28;20305;-71
2023/01/11 10:39:01;;;;;;;1999.90;999.90;;;;;;;;;;4993957;28;20218;-70
2023/01/11 10:41:55;;;;;;;1999.90;999.90;;;;;;;;;;5004382;28;20207;-68
2023/01/11 10:44:42;;;;;;;1999.90;999.90;;;;;;;;;;5003019;28;20226;-69
2023/01/11 10:47:30;;;;;;;1999.90;999.90;;;;;;;;;;5014048;28;20215;-69
2023/01/11 10:50:21;;;;;;;1999.90;999.90;;;;;;;;;;5013995;28;20281;-70
2023/01/11 10:53:07;;;;;;;1999.90;999.90;;;;;;;;;;5014192;28;20254;-69
2023/01/11 10:55:57;;;;;;;1999.90;999.90;;;;;;;;;;5013304;28;20207;-69
2023/01/11 10:59:03;;;;;;;1999.90;999.90;;;;;;;;;;5013610;28;20230;-70
2023/01/11 11:01:54;;;;;;;1999.90;999.90;;;;;;;;;;5013550;28;20202;-70
2023/01/11 11:04:47;;;;;;;1999.90;999.90;;;;;;;;;;5003075;28;20852;-70
2023/01/11 11:07:38;;;;;;;1999.90;999.90;;;;;;;;;;4993431;28;21086;-70
2023/01/11 11:10:26;;;;;;;1999.90;999.90;;;;;;;;;;4996656;28;20218;-70
2023/01/11 11:13:14;;;;;;;1999.90;999.90;;;;;;;;;;5001966;28;20342;-70
2023/01/11 11:16:02;;;;;;;1999.90;999.90;;;;;;;;;;4999814;28;20366;-70
2023/01/11 11:18:48;;;;;;;1999.90;999.90;;;;;;;;;;5012731;28;20712;-71
2023/01/11 11:21:35;;;;;;;1999.90;999.90;;;;;;;;;;5003089;28;20251;-69
2023/01/11 11:24:26;;;;;;;1999.90;999.90;;;;;;;;;;4995531;28;20285;-70
2023/01/11 11:27:17;;;;;;;1999.90;999.90;;;;;;;;;;4994159;28;20688;-71
2023/01/11 11:30:03;;;;;;;1999.90;999.90;;;;;;;;;;5000773;28;20206;-70
2023/01/11 11:32:54;;;;;;;1999.90;999.90;;;;;;;;;;4995676;28;20215;-69
2023/01/11 11:35:40;;;;;;;1999.90;999.90;;;;;;;;;;4991913;28;20421;-69
2023/01/11 11:38:28;;;;;;;1999.90;999.90;;;;;;;;;;5012113;28;20230;-71
2023/01/11 11:41:16;;;;;;;1999.90;999.90;;;;;;;;;;5012467;28;20206;-69
2023/01/11 11:44:14;;;;;;;1999.90;999.90;;;;;;;;;;5012961;28;20811;-70
2023/01/11 11:47:00;;;;;;;1999.90;999.90;;;;;;;;;;5012545;28;20206;-69
2023/01/11 11:49:46;;;;;;;1999.90;999.90;;;;;;;;;;5012577;28;20199;-69
2023/01/11 11:52:31;;;;;;;1999.90;999.90;;;;;;;;;;5012681;28;20203;-69
2023/01/11 11:55:16;;;;;;;1999.90;999.90;;;;;;;;;;5012010;28;20223;-70
2023/01/11 11:58:07;;;;;;;1999.90;999.90;;;;;;;;;;5011336;28;20242;-70
2023/01/11 12:00:52;;;;;;;1999.90;999.90;;;;;;;;;;5011223;28;20694;-70
2023/01/11 12:03:42;;;;;;;1999.90;999.90;;;;;;;;;;5012408;28;20747;-70
2023/01/11 12:06:28;;;;;;;1999.90;999.90;;;;;;;;;;5011403;28;20203;-70
2023/01/11 12:09:24;;;;;;;1999.90;999.90;;;;;;;;;;4992761;28;20761;-69
2023/01/11 12:12:14;;;;;;;1999.90;999.90;;;;;;;;;;4992858;28;20211;-70
2023/01/11 12:15:24;;;;;;;1999.90;999.90;;;;;;;;;;5009048;28;20227;-70
2023/01/11 12:18:23;;;;;;;1999.90;999.90;;;;;;;;;;5004737;28;20349;-69
2023/01/11 12:21:19;;;;;;;1999.90;999.90;;;;;;;;;;5009060;28;20581;-69
2023/01/11 12:24:16;;;;;;;1999.90;999.90;;;;;;;;;;5011675;28;20234;-70
2023/01/11 12:27:06;;;;;;;1999.90;999.90;;;;;;;;;;5011904;28;20210;-69
2023/01/11 12:29:58;;;;;;;1999.90;999.90;;;;;;;;;;5011244;28;20207;-70
2023/01/11 12:33:04;;;;;;;1999.90;999.90;;;;;;;;;;5012119;28;20250;-69
2023/01/11 12:35:54;;;;;;;1999.90;999.90;;;;;;;;;;5011346;28;20231;-70
2023/01/11 12:38:44;;;;;;;1999.90;999.90;;;;;;;;;;5008506;28;20223;-69
2023/01/11 12:41:48;;;;;;;1999.90;999.90;;;;;;;;;;4992095;28;20207;-70
2023/01/11 12:44:41;;;;;;;1999.90;999.90;;;;;;;;;;5000000;28;20301;-69
2023/01/11 12:47:38;;;;;;;1999.90;999.90;;;;;;;;;;5011789;28;20306;-69
2023/01/11 12:50:25;;;;;;;1999.90;999.90;;;;;;;;;;5011696;28;20207;-68
2023/01/11 12:53:17;;;;;;;1999.90;999.90;;;;;;;;;;5012058;28;20215;-70
2023/01/11 12:56:19;;;;;;;1999.90;999.90;;;;;;;;;;5009535;28;20258;-70
2023/01/11 12:59:09;;;;;;;1999.90;999.90;;;;;;;;;;5010682;28;20708;-69
2023/01/11 13:01:58;;;;;;;1999.90;999.90;;;;;;;;;;5010740;28;20207;-70
2023/01/11 13:04:52;;;;;;;1999.90;999.90;;;;;;;;;;5010668;28;20222;-70
2023/01/11 13:07:43;;;;;;;1999.90;999.90;;;;;;;;;;5011023;28;20238;-69
2023/01/11 13:10:34;;;;;;;1999.90;999.90;;;;;;;;;;4996175;28;20204;-71
2023/01/11 13:13:24;;;;;;;1999.90;999.90;;;;;;;;;;4999672;28;20489;-71
2023/01/11 13:16:13;;;;;;;1999.90;999.90;;;;;;;;;;5014978;28;20210;-70
2023/01/11 13:19:02;;;;;;;1999.90;999.90;;;;;;;;;;5014791;28;20235;-70
2023/01/11 13:21:52;;;;;;;1999.90;999.90;;;;;;;;;;4996533;28;20282;-70
2023/01/11 13:24:38;;;;;;;1999.90;999.90;;;;;;;;;;5011438;28;20282;-70
2023/01/11 13:27:25;;;;;;;1999.90;999.90;;;;;;;;;;5015129;28;20214;-70
2023/01/11 13:30:12;;;;;;;1999.90;999.90;;;;;;;;;;4995727;28;20203;-71
2023/01/11 13:32:59;;;;;;;1999.90;999.90;;;;;;;;;;4999920;28;20209;-70
2023/01/11 13:35:48;;;;;;;1999.90;999.90;;;;;;;;;;4997298;28;20247;-70
2023/01/11 13:38:37;;;;;;;1999.90;999.90;;;;;;;;;;5007462;28;20290;-68
2023/01/11 13:41:23;;;;;;;1999.90;999.90;;;;;;;;;;4995067;28;20708;-70
2023/01/11 13:44:13;;;;;;;1999.90;999.90;;;;;;;;;;4994730;28;20226;-71
2023/01/11 13:47:02;;;;;;;1999.90;999.90;;;;;;;;;;5011568;28;20207;-69
2023/01/11 13:49:51;;;;;;;1999.90;999.90;;;;;;;;;;5013382;28;20199;-70
2023/01/11 13:52:40;;;;;;;1999.90;999.90;;;;;;;;;;5013042;28;20203;-69
2023/01/11 13:55:28;;;;;;;1999.90;999.90;;;;;;;;;;4998926;28;20239;-69
2023/01/11 13:58:16;;;;;;;1999.90;999.90;;;;;;;;;;5010456;28;20273;-68
2023/01/11 14:01:06;;;;;;;1999.90;999.90;;;;;;;;;;4994700;28;20230;-70
2023/01/11 14:03:52;;;;;;;1999.90;999.90;;;;;;;;;;5010695;28;20226;-68
2023/01/11 14:06:48;;;;;;;1999.90;999.90;;;;;;;;;;4994357;28;20211;-69
2023/01/11 14:09:49;;;;;;;1999.90;999.90;;;;;;;;;;5010215;28;20199;-69
2023/01/11 14:12:42;;;;;;;1999.90;999.90;;;;;;;;;;5012994;28;20195;-71
2023/01/11 14:15:31;;;;;;;1999.90;999.90;;;;;;;;;;4993786;28;20247;-69
2023/01/11 14:18:25;;;;;;;1999.90;999.90;;;;;;;;;;5009226;28;20705;-70
2023/01/11 14:21:16;;;;;;;1999.90;999.90;;;;;;;;;;4993705;28;20200;-69
2023/01/11 14:24:03;;;;;;;1999.90;999.90;;;;;;;;;;5008515;28;20833;-70
2023/01/11 14:27:06;;;;;;;1999.90;999.90;;;;;;;;;;5012857;28;20207;-70
2023/01/11 14:29:59;;;;;;;1999.90;999.90;;;;;;;;;;5012644;28;20194;-69
2023/01/11 14:33:08;;;;;;;1999.90;999.90;;;;;;;;;;4994904;28;20207;-70
2023/01/11 14:36:19;;;;;;;1999.90;999.90;;;;;;;;;;4962696;28;20214;-69
2023/01/11 14:39:09;;;;;;;1999.90;999.90;;;;;;;;;;5011932;28;20210;-68
2023/01/11 14:42:19;;;;;;;1999.90;999.90;;;;;;;;;;5012427;28;20281;-69
2023/01/11 14:45:20;;;;;;;1999.90;999.90;;;;;;;;;;5011857;28;20214;-70
2023/01/11 14:48:10;;;;;;;1999.90;999.90;;;;;;;;;;5012031;28;20700;-70
2023/01/11 14:51:14;;;;;;;1999.90;999.90;;;;;;;;;;5013949;28;20482;-70
2023/01/11 14:54:03;;;;;;;1999.90;999.90;;;;;;;;;;5013805;28;20230;-69
2023/01/11 14:56:50;;;;;;;1999.90;999.90;;;;;;;;;;5013901;28;20206;-69
2023/01/11 14:59:37;;;;;;;1999.90;999.90;;;;;;;;;;5012661;28;20593;-70
2023/01/11 15:02:29;;;;;;;1999.90;999.90;;;;;;;;;;4994263;28;20338;-70
2023/01/11 15:05:32;;;;;;;1999.90;999.90;;;;;;;;;;4993873;28;20223;-70
2023/01/11 15:08:22;;;;;;;1999.90;999.90;;;;;;;;;;4994039;28;20258;-69
2023/01/11 15:11:21;;;;;;;1999.90;999.90;;;;;;;;;;5000390;28;20215;-70
2023/01/11 15:14:21;;;;;;;1999.90;999.90;;;;;;;;;;5010515;28;20317;-70
2023/01/11 15:20:10;;;;;;;1999.90;999.90;;;;;;;;;;5012563;28;20214;-70
2023/01/11 15:22:55;;;;;;;1999.90;999.90;;;;;;;;;;5013389;28;20269;-70
2023/01/11 15:25:40;;;;;;;1999.90;999.90;;;;;;;;;;5012363;28;20249;-70
2023/01/11 15:28:35;;;;;;;1999.90;999.90;;;;;;;;;;5012961;28;20206;-69
2023/01/11 15:31:37;;;;;;;1999.90;999.90;;;;;;;;;;5012483;28;20218;-70
2023/01/11 15:34:24;;;;;;;1999.90;999.90;;;;;;;;;;5012394;28;20225;-70
2023/01/11 15:37:25;;;;;;;1999.90;999.90;;;;;;;;;;5013226;28;20209;-70
2023/01/11 15:40:13;;;;;;;1999.90;999.90;;;;;;;;;;5012195;28;20244;-70
2023/01/11 15:43:12;;;;;;;1999.90;999.90;;;;;;;;;;5013098;28;20245;-69
2023/01/11 15:49:42;;;;;;;1999.90;999.90;;;;;;;;;;4993436;28;20199;-70
2023/01/11 15:52:49;;;;;;;1999.90;999.90;;;;;;;;;;4993324;28;20203;-70
2023/01/11 15:55:48;;;;;;;1999.90;999.90;;;;;;;;;;4987830;28;20242;-70
2023/01/11 15:58:44;;;;;;;1999.90;999.90;;;;;;;;;;5010530;28;20219;-71
2023/01/11 16:01:29;;;;;;;1999.90;999.90;;;;;;;;;;5008257;28;20207;-69
2023/01/11 16:04:23;;;;;;;1999.90;999.90;;;;;;;;;;5011891;28;20932;-70
2023/01/11 16:07:14;;;;;;;1999.90;999.90;;;;;;;;;;5012186;28;20265;-70
2023/01/11 16:10:07;;;;;;;1999.90;999.90;;;;;;;;;;5012322;28;20716;-70
2023/01/11 16:12:59;;;;;;;1999.90;999.90;;;;;;;;;;5011764;28;20211;-71
2023/01/11 16:15:53;;;;;;;1999.90;999.90;;;;;;;;;;4999404;28;20225;-70
2023/01/11 16:18:40;;;;;;;1999.90;999.90;;;;;;;;;;5012184;28;20573;-70
2023/01/11 16:21:30;;;;;;;1999.90;999.90;;;;;;;;;;5012375;28;20285;-71
2023/01/11 16:24:16;;;;;;;1999.90;999.90;;;;;;;;;;5011642;28;20775;-71
2023/01/11 16:27:02;;;;;;;1999.90;999.90;;;;;;;;;;5008246;28;20219;-71
2023/01/11 16:29:50;;;;;;;1999.90;999.90;;;;;;;;;;5010191;28;20210;-71
2023/01/11 16:32:36;;;;;;;1999.90;999.90;;;;;;;;;;5010639;28;20523;-71
2023/01/11 16:35:22;;;;;;;1999.90;999.90;;;;;;;;;;4997971;28;20225;-70
2023/01/11 16:38:12;;;;;;;1999.90;999.90;;;;;;;;;;5011385;28;20337;-71
2023/01/11 16:40:57;;;;;;;1999.90;999.90;;;;;;;;;;5004431;28;20694;-71
2023/01/11 16:43:47;;;;;;;1999.90;999.90;;;;;;;;;;5011893;28;20210;-72
2023/01/11 16:46:47;;;;;;;1999.90;999.90;;;;;;;;;;5010851;28;20214;-71
2023/01/11 16:49:34;;;;;;;1999.90;999.90;;;;;;;;;;5011626;28;20206;-71
2023/01/11 16:52:42;;;;;;;1999.90;999.90;;;;;;;;;;5011987;28;20207;-71
2023/01/11 16:55:29;;;;;;;1999.90;999.90;;;;;;;;;;5011577;28;20226;-70
2023/01/11 16:58:20;;;;;;;1999.90;999.90;;;;;;;;;;5012261;28;20754;-71
2023/01/11 17:01:06;;;;;;;1999.90;999.90;;;;;;;;;;5011479;28;20202;-72
2023/01/11 17:03:52;;;;;;;1999.90;999.90;;;;;;;;;;5011613;28;20300;-72
2023/01/11 17:06:39;;;;;;;1999.90;999.90;;;;;;;;;;5011250;28;20689;-71
2023/01/11 17:09:27;;;;;;;1999.90;999.90;;;;;;;;;;5011735;28;20211;-71
2023/01/11 17:12:14;;;;;;;1999.90;999.90;;;;;;;;;;5011460;28;20257;-71
2023/01/11 17:15:05;;;;;;;1999.90;999.90;;;;;;;;;;5001803;28;20321;-70
2023/01/11 17:17:50;;;;;;;1999.90;999.90;;;;;;;;;;5011759;28;20199;-71
2023/01/11 17:20:35;;;;;;;1999.90;999.90;;;;;;;;;;5010179;28;20724;-71
2023/01/11 17:23:21;;;;;;;1999.90;999.90;;;;;;;;;;5011344;28;20214;-71
2023/01/11 17:26:06;;;;;;;1999.90;999.90;;;;;;;;;;5010783;28;20266;-72
2023/01/11 17:28:54;;;;;;;1999.90;999.90;;;;;;;;;;5011653;28;20598;-72
2023/01/11 17:31:40;;;;;;;1999.90;999.90;;;;;;;;;;5011422;28;20206;-71
2023/01/11 17:34:27;;;;;;;1999.90;999.90;;;;;;;;;;4991693;28;20818;-72
2023/01/11 17:37:13;;;;;;;1999.90;999.90;;;;;;;;;;4992100;28;20335;-71
2023/01/11 17:40:00;;;;;;;1999.90;999.90;;;;;;;;;;4991862;28;20230;-71
2023/01/11 17:45:50;;;;;;;1999.90;999.90;;;;;;;;;;5011160;28;20801;-72
2023/01/11 17:48:35;;;;;;;1999.90;999.90;;;;;;;;;;5011487;28;20214;-70
2023/01/11 17:51:25;;;;;;;1999.90;999.90;;;;;;;;;;5011292;28;20203;-72
2023/01/11 17:54:18;;;;;;;1999.90;999.90;;;;;;;;;;5009248;28;20226;-72
2023/01/11 17:57:05;;;;;;;1999.90;999.90;;;;;;;;;;5003491;28;20339;-72
2023/01/11 17:59:50;;;;;;;1999.90;999.90;;;;;;;;;;4995241;28;20231;-71
2023/01/11 18:02:38;;;;;;;1999.90;999.90;;;;;;;;;;5012363;28;20729;-71
2023/01/11 18:05:25;;;;;;;1999.90;999.90;;;;;;;;;;5014513;28;20740;-71
2023/01/11 18:08:17;;;;;;;1999.90;999.90;;;;;;;;;;5014188;28;20286;-71
2023/01/11 18:11:02;;;;;;;1999.90;999.90;;;;;;;;;;5011693;28;20418;-70
2023/01/11 18:13:50;;;;;;;1999.90;999.90;;;;;;;;;;5014675;28;20585;-73
2023/01/11 18:16:35;;;;;;;1999.90;999.90;;;;;;;;;;5011801;28;20295;-72
2023/01/11 18:19:22;;;;;;;1999.90;999.90;;;;;;;;;;5013921;28;20214;-72
2023/01/11 18:22:25;;;;;;;1999.90;999.90;;;;;;;;;;5013879;28;20203;-72
2023/01/11 18:25:16;;;;;;;1999.90;999.90;;;;;;;;;;5013810;28;20939;-72